Time;durP1;ratioP1;P1;durP2;ratioP2;P2;SDS_P1;SDS_P2;PMS_P1;PMS_P2;Temp;Humidity;BMP_temperature;BMP_pressure;BME280_temperature;BME280_humidity;BME280_pressure;Samples;Min_cycle;Max_cycle;Signal;HPM_P1;HPM_P2
2022/03/09 00:01:52;;;;;;;141.57;104.13;;;;;;;-2.87;100.00;101379.00;5014450;28;20548;-79
2022/03/09 00:04:19;;;;;;;148.73;107.32;;;;;;;-2.97;100.00;101377.91;5013605;28;20123;-79
2022/03/09 00:06:45;;;;;;;160.50;110.80;;;;;;;-3.11;100.00;101379.69;5014389;28;20123;-79
2022/03/09 00:09:13;;;;;;;135.68;108.28;;;;;;;-3.14;100.00;101379.06;5014108;28;20054;-79
2022/03/09 00:11:40;;;;;;;141.50;109.22;;;;;;;-3.21;100.00;101381.19;5013119;28;20060;-79
2022/03/09 00:14:09;;;;;;;148.38;110.30;;;;;;;-3.16;100.00;101379.13;5013798;28;20115;-79
2022/03/09 00:16:36;;;;;;;150.63;109.85;;;;;;;-3.32;100.00;101370.69;5014080;28;20045;-79
2022/03/09 00:19:03;;;;;;;175.73;123.57;;;;;;;-3.24;100.00;101368.41;5013700;28;20108;-80
2022/03/09 00:21:30;;;;;;;175.88;124.97;;;;;;;-3.32;100.00;101370.69;5013500;28;20050;-79
2022/03/09 00:23:56;;;;;;;156.93;118.90;;;;;;;-3.27;100.00;101364.28;5013876;28;20061;-80
2022/03/09 00:26:23;;;;;;;158.60;122.53;;;;;;;-3.20;100.00;101367.28;5013969;28;20147;-79
2022/03/09 00:28:50;;;;;;;149.95;113.50;;;;;;;-3.32;100.00;101366.31;5013665;28;20536;-79
2022/03/09 00:31:18;;;;;;;143.13;109.40;;;;;;;-3.25;100.00;101364.16;5005872;28;20049;-79
2022/03/09 00:33:45;;;;;;;151.23;117.68;;;;;;;-3.42;100.00;101369.59;5013155;28;20046;-79
2022/03/09 00:36:12;;;;;;;153.25;116.75;;;;;;;-3.35;100.00;101363.94;5013716;28;20119;-79
2022/03/09 00:38:38;;;;;;;147.32;109.50;;;;;;;-3.42;100.00;101354.03;5013667;28;20058;-80
2022/03/09 00:41:05;;;;;;;153.50;108.47;;;;;;;-3.48;100.00;101358.72;5013701;28;20050;-79
2022/03/09 00:43:32;;;;;;;154.38;112.80;;;;;;;-3.52;100.00;101359.00;5013713;28;20062;-79
2022/03/09 00:45:58;;;;;;;150.60;105.53;;;;;;;-3.43;100.00;101357.56;5013581;28;20057;-79
2022/03/09 00:48:26;;;;;;;138.82;90.35;;;;;;;-3.47;100.00;101360.34;5013338;28;20045;-79
2022/03/09 00:50:53;;;;;;;139.50;92.57;;;;;;;-3.59;100.00;101350.75;5013203;28;20475;-79
2022/03/09 00:53:20;;;;;;;142.40;107.35;;;;;;;-3.41;100.00;101356.53;5013302;28;20041;-79
2022/03/09 00:55:47;;;;;;;149.88;106.40;;;;;;;-3.57;100.00;101351.50;5013161;28;20045;-78
2022/03/09 00:58:13;;;;;;;162.85;117.63;;;;;;;-3.46;100.00;101353.41;5013145;28;20548;-79
2022/03/09 01:00:40;;;;;;;156.55;112.05;;;;;;;-3.49;100.00;101359.63;5013920;28;20109;-79
2022/03/09 01:03:07;;;;;;;170.38;121.47;;;;;;;-3.33;100.00;101354.28;5013190;28;20446;-79
2022/03/09 01:05:35;;;;;;;176.93;127.70;;;;;;;-3.41;100.00;101358.31;5013002;28;20119;-79
2022/03/09 01:08:02;;;;;;;168.77;121.07;;;;;;;-3.38;100.00;101355.50;5012891;28;20049;-80
2022/03/09 01:10:29;;;;;;;161.57;115.28;;;;;;;-3.40;100.00;101358.19;5012942;28;20057;-79
2022/03/09 01:12:55;;;;;;;138.25;114.72;;;;;;;-3.52;100.00;101354.63;5013161;28;20053;-79
2022/03/09 01:15:22;;;;;;;140.10;115.60;;;;;;;-3.68;100.00;101361.75;5013492;28;20115;-78
2022/03/09 01:17:49;;;;;;;126.63;97.63;;;;;;;-3.63;100.00;101351.91;5013386;28;20136;-78
2022/03/09 01:20:16;;;;;;;139.00;102.05;;;;;;;-3.63;100.00;101344.13;5013054;28;20053;-80
2022/03/09 01:22:44;;;;;;;133.10;111.93;;;;;;;-3.51;100.00;101339.88;5012518;28;20482;-79
2022/03/09 01:25:11;;;;;;;136.68;100.50;;;;;;;-3.62;100.00;101344.94;5015728;28;20470;-79
2022/03/09 01:27:38;;;;;;;132.73;99.18;;;;;;;-3.64;100.00;101345.03;5017411;28;20100;-79
2022/03/09 01:30:07;;;;;;;136.18;102.90;;;;;;;-3.67;100.00;101345.22;5017080;28;20058;-79
2022/03/09 01:32:34;;;;;;;136.23;101.72;;;;;;;-3.67;100.00;101344.41;5016350;28;20517;-79
2022/03/09 01:35:01;;;;;;;139.68;103.78;;;;;;;-3.93;100.00;101336.53;5016804;28;20440;-79
2022/03/09 01:37:27;;;;;;;134.70;104.18;;;;;;;-4.04;100.00;101336.34;5016804;28;20046;-79
2022/03/09 01:39:56;;;;;;;151.45;115.70;;;;;;;-4.15;100.00;101329.22;5017192;28;20058;-79
2022/03/09 01:42:23;;;;;;;146.48;115.95;;;;;;;-3.98;100.00;101335.97;5017063;28;20054;-79
2022/03/09 01:44:49;;;;;;;141.82;107.78;;;;;;;-4.10;100.00;101329.78;5016299;28;20112;-79
2022/03/09 01:47:16;;;;;;;127.50;104.63;;;;;;;-4.12;100.00;101336.81;5016474;28;20061;-78
2022/03/09 01:49:43;;;;;;;131.20;103.80;;;;;;;-4.03;100.00;101338.00;5017035;28;20392;-79
2022/03/09 01:52:12;;;;;;;135.40;104.05;;;;;;;-4.02;100.00;101334.50;5016572;28;20057;-79
2022/03/09 01:54:40;;;;;;;136.02;108.78;;;;;;;-4.08;100.00;101342.69;5016231;28;20482;-80
2022/03/09 01:57:09;;;;;;;123.00;90.20;;;;;;;-4.19;100.00;101330.34;5016943;28;20060;-79
2022/03/09 01:59:35;;;;;;;132.65;96.13;;;;;;;-4.34;100.00;101323.53;5016245;28;20045;-80
2022/03/09 02:02:02;;;;;;;130.43;97.10;;;;;;;-4.62;100.00;101335.59;5016741;28;20471;-79
2022/03/09 02:04:29;;;;;;;121.40;93.05;;;;;;;-4.56;100.00;101334.38;5016480;28;20061;-78
2022/03/09 02:06:56;;;;;;;130.95;93.82;;;;;;;-4.55;100.00;101336.06;5016174;28;20445;-79
2022/03/09 02:12:11;;;;;;;121.43;86.40;;;;;;;-4.65;100.00;101333.19;5014297;28;20057;-79
2022/03/09 02:14:39;;;;;;;135.35;96.63;;;;;;;-4.56;100.00;101330.03;5016468;28;20046;-80
2022/03/09 02:17:08;;;;;;;144.45;104.47;;;;;;;-4.41;100.00;101330.84;5014318;28;20123;-79
2022/03/09 02:19:35;;;;;;;139.73;104.43;;;;;;;-4.33;100.00;101325.19;5016297;28;20128;-78
2022/03/09 02:22:06;;;;;;;136.13;98.25;;;;;;;-4.51;100.00;101324.56;5015749;28;20049;-80
2022/03/09 02:24:35;;;;;;;130.10;97.70;;;;;;;-4.59;100.00;101324.22;5016269;28;20053;-79
2022/03/09 02:27:02;;;;;;;129.27;95.80;;;;;;;-4.74;100.00;101311.25;5011823;28;20046;-79
2022/03/09 02:29:28;;;;;;;130.43;91.72;;;;;;;-4.69;100.00;101327.34;5015839;28;20058;-78
2022/03/09 02:31:55;;;;;;;125.97;89.93;;;;;;;-4.79;100.00;101323.63;5016331;28;20046;-79
2022/03/09 02:34:22;;;;;;;269.83;145.25;;;;;;;-4.69;100.00;101321.31;5015851;28;20046;-78
2022/03/09 02:36:49;;;;;;;193.35;121.15;;;;;;;-4.67;100.00;101315.13;5014866;28;20114;-78
2022/03/09 02:39:16;;;;;;;170.75;109.43;;;;;;;-4.61;100.00;101319.94;5016090;28;20137;-79
2022/03/09 02:41:44;;;;;;;171.93;106.57;;;;;;;-4.80;100.00;101306.44;5015510;28;20054;-78
2022/03/09 02:44:11;;;;;;;156.88;99.72;;;;;;;-4.77;100.00;101310.59;5015915;28;20050;-79
2022/03/09 02:46:38;;;;;;;148.98;102.82;;;;;;;-4.78;100.00;101307.19;5015567;28;20112;-79
2022/03/09 02:49:04;;;;;;;146.07;102.70;;;;;;;-4.61;100.00;101316.50;5015868;28;20050;-79
2022/03/09 02:51:31;;;;;;;160.45;111.15;;;;;;;-4.64;100.00;101312.34;5015143;28;20379;-82
2022/03/09 02:53:59;;;;;;;128.43;87.68;;;;;;;-4.55;100.00;101310.94;5015775;28;20092;-78
2022/03/09 02:56:25;;;;;;;130.80;86.35;;;;;;;-4.55;100.00;101307.53;5015430;28;20471;-79
2022/03/09 02:58:54;;;;;;;123.38;88.85;;;;;;;-4.57;100.00;101317.97;5015306;28;20454;-79
2022/03/09 03:01:20;;;;;;;127.20;93.28;;;;;;;-4.36;100.00;101326.19;5138511;22;20057;-79
2022/03/09 03:03:47;;;;;;;126.45;94.13;;;;;;;-4.28;100.00;101329.16;5054194;28;20064;-78
2022/03/09 03:06:14;;;;;;;156.77;113.47;;;;;;;-4.49;100.00;101328.72;5054657;28;20049;-78
2022/03/09 03:08:41;;;;;;;121.95;84.72;;;;;;;-4.52;100.00;101318.53;5052813;28;20052;-79
2022/03/09 03:11:10;;;;;;;117.65;91.68;;;;;;;-4.43;100.00;101328.34;5054573;28;20049;-79
2022/03/09 03:13:37;;;;;;;127.18;103.22;;;;;;;-4.61;100.00;101334.66;5055076;28;20053;-79
2022/03/09 03:16:06;;;;;;;137.00;108.30;;;;;;;-4.52;100.00;101320.31;5054737;28;20049;-79
2022/03/09 03:18:32;;;;;;;122.53;97.18;;;;;;;-4.44;100.00;101329.28;5054390;28;20127;-79
2022/03/09 03:20:59;;;;;;;124.18;104.35;;;;;;;-4.43;100.00;101335.31;5054711;28;20114;-78
2022/03/09 03:23:28;;;;;;;117.57;89.93;;;;;;;-4.43;100.00;101335.31;5054904;28;20044;-78
2022/03/09 03:25:56;;;;;;;122.43;98.07;;;;;;;-4.35;100.00;101330.47;5054409;28;20114;-78
2022/03/09 03:28:24;;;;;;;120.05;98.78;;;;;;;-4.54;100.00;101328.16;5054143;28;20481;-79
2022/03/09 03:30:51;;;;;;;114.40;88.25;;;;;;;-4.56;100.00;101327.44;5054321;28;20511;-78
2022/03/09 03:33:21;;;;;;;160.10;113.40;;;;;;;-4.68;100.00;101328.19;5054381;28;20053;-78
2022/03/09 03:35:49;;;;;;;141.77;100.82;;;;;;;-4.85;100.00;101339.56;5054254;28;20053;-79
2022/03/09 03:38:16;;;;;;;137.65;100.18;;;;;;;-4.81;100.00;101335.88;5054599;28;20049;-78
2022/03/09 03:40:44;;;;;;;142.65;102.93;;;;;;;-4.68;100.00;101331.59;5054545;28;20049;-79
2022/03/09 03:43:11;;;;;;;142.60;100.50;;;;;;;-4.50;100.00;101326.25;5054581;28;20049;-79
2022/03/09 03:45:38;;;;;;;150.15;107.57;;;;;;;-4.56;100.00;101326.63;5053409;28;20049;-78
2022/03/09 03:48:05;;;;;;;142.63;103.78;;;;;;;-4.69;100.00;101324.75;5053779;28;20057;-79
2022/03/09 03:50:33;;;;;;;159.00;110.82;;;;;;;-4.81;100.00;101322.06;5053892;28;20052;-80
2022/03/09 03:53:00;;;;;;;134.98;98.43;;;;;;;-4.72;100.00;101318.91;5054096;28;20041;-78
2022/03/09 03:55:27;;;;;;;121.80;96.95;;;;;;;-4.87;100.00;101328.44;5053990;28;20049;-79
2022/03/09 03:57:54;;;;;;;133.60;99.28;;;;;;;-4.69;100.00;101319.59;5054534;28;20056;-78
2022/03/09 04:00:23;;;;;;;133.90;99.38;;;;;;;-4.61;100.00;101313.91;5053617;28;20126;-78
2022/03/09 04:02:50;;;;;;;127.18;96.38;;;;;;;-4.61;100.00;101317.34;5053442;28;20048;-78
2022/03/09 04:05:16;;;;;;;118.55;87.57;;;;;;;-4.62;100.00;101320.03;5053678;28;20119;-78
2022/03/09 04:07:45;;;;;;;122.70;90.78;;;;;;;-4.34;100.00;101307.97;5053885;28;20385;-79
2022/03/09 04:10:12;;;;;;;141.20;97.55;;;;;;;-4.50;100.00;101310.69;5053668;28;20049;-80
2022/03/09 04:12:38;;;;;;;133.68;99.72;;;;;;;-4.33;100.00;101318.22;5054302;28;20116;-78
2022/03/09 04:15:06;;;;;;;121.97;94.45;;;;;;;-4.27;100.00;101320.44;5051830;28;20115;-79
2022/03/09 04:17:39;;;;;;;109.85;84.20;;;;;;;-4.07;100.00;101320.97;5053736;28;20113;-80
2022/03/09 04:20:07;;;;;;;107.72;84.30;;;;;;;-3.82;100.00;101318.47;5053353;28;20146;-81
2022/03/09 04:22:34;;;;;;;125.72;92.40;;;;;;;-3.80;100.00;101329.59;5053463;28;20130;-77
2022/03/09 04:25:02;;;;;;;164.07;125.68;;;;;;;-3.61;100.00;101329.25;5053763;28;20096;-79
2022/03/09 04:27:29;;;;;;;121.45;98.63;;;;;;;-3.84;100.00;101329.88;5053404;28;20083;-79
2022/03/09 04:29:56;;;;;;;123.25;91.05;;;;;;;-3.60;100.00;101325.75;5052338;28;20122;-79
2022/03/09 04:32:25;;;;;;;121.25;95.43;;;;;;;-3.66;100.00;101330.47;5036377;28;20048;-79
2022/03/09 04:34:52;;;;;;;131.45;102.93;;;;;;;-3.67;100.00;101331.41;5053613;28;20048;-79
2022/03/09 04:37:19;;;;;;;121.57;94.03;;;;;;;-4.08;100.00;101342.69;5053878;28;20118;-78
2022/03/09 04:39:46;;;;;;;114.03;86.38;;;;;;;-4.44;100.00;101331.06;5053814;28;20049;-79
2022/03/09 04:42:14;;;;;;;112.35;88.15;;;;;;;-4.26;100.00;101339.47;5053141;28;20551;-79
2022/03/09 04:44:41;;;;;;;127.35;97.82;;;;;;;-3.83;100.00;101328.97;5045482;28;20045;-78
2022/03/09 04:47:08;;;;;;;128.68;94.53;;;;;;;-3.74;100.00;101342.19;5053499;28;20118;-78
2022/03/09 04:49:35;;;;;;;152.20;111.50;;;;;;;-3.52;100.00;101338.22;5053174;28;20048;-78
2022/03/09 04:52:01;;;;;;;146.55;108.35;;;;;;;-3.29;100.00;101340.16;5052812;28;20451;-78
2022/03/09 04:54:28;;;;;;;147.27;105.65;;;;;;;-3.10;100.00;101337.16;5053155;28;20045;-78
2022/03/09 04:56:55;;;;;;;137.75;95.03;;;;;;;-3.24;100.00;101338.09;5053101;28;20082;-79
2022/03/09 04:59:23;;;;;;;136.75;97.70;;;;;;;-3.27;100.00;101337.44;5046007;28;20110;-79
2022/03/09 05:01:50;;;;;;;148.93;99.97;;;;;;;-3.27;100.00;101340.88;5048908;28;20053;-78
2022/03/09 05:04:17;;;;;;;155.15;106.68;;;;;;;-3.11;100.00;101348.50;5053038;28;20118;-78
2022/03/09 05:06:43;;;;;;;150.02;109.75;;;;;;;-3.06;100.00;101345.56;5043816;28;20056;-79
2022/03/09 05:09:10;;;;;;;134.48;101.43;;;;;;;-3.39;100.00;101341.66;5049965;28;20044;-78
2022/03/09 05:11:37;;;;;;;152.88;110.25;;;;;;;-3.34;100.00;101342.19;5052041;28;20049;-79
2022/03/09 05:14:03;;;;;;;163.45;115.50;;;;;;;-3.28;100.00;101346.16;5052887;28;20056;-79
2022/03/09 05:16:32;;;;;;;148.57;112.13;;;;;;;-3.01;100.00;101348.69;5052517;28;20052;-78
2022/03/09 05:18:58;;;;;;;146.07;106.43;;;;;;;-2.95;100.00;101348.28;5052022;28;20110;-78
2022/03/09 05:21:25;;;;;;;147.70;105.22;;;;;;;-2.80;100.00;101347.25;5052577;28;20048;-79
2022/03/09 05:23:52;;;;;;;163.25;120.93;;;;;;;-2.64;100.00;101347.03;5051023;28;20056;-80
2022/03/09 05:26:18;;;;;;;197.48;138.88;;;;;;;-2.43;100.00;101349.09;5052848;28;20118;-78
2022/03/09 05:28:45;;;;;;;207.57;146.60;;;;;;;-2.48;100.00;101346.84;5051597;28;20501;-78
2022/03/09 05:31:12;;;;;;;174.90;122.65;;;;;;;-2.13;100.00;101351.34;5052027;28;20057;-78
2022/03/09 05:33:40;;;;;;;212.27;154.35;;;;;;;-2.15;100.00;101358.41;5052179;28;20045;-79
2022/03/09 05:36:07;;;;;;;211.20;151.70;;;;;;;-2.26;100.00;101366.16;5051992;28;20049;-78
2022/03/09 05:38:33;;;;;;;230.60;151.55;;;;;;;-2.15;100.00;101361.00;5052084;28;20047;-79
2022/03/09 05:41:00;;;;;;;216.68;143.77;;;;;;;-2.12;100.00;101356.44;5052372;28;20053;-78
2022/03/09 05:43:27;;;;;;;157.07;109.60;;;;;;;-0.09;100.00;101364.81;5044682;28;20115;-78
2022/03/09 05:45:55;;;;;;;139.73;116.25;;;;;;;3.32;100.00;101376.56;5049249;28;20107;-79
2022/03/09 05:48:23;;;;;;;203.55;162.15;;;;;;;-1.01;100.00;101379.69;5048622;28;20452;-80
2022/03/09 05:50:51;;;;;;;201.95;141.77;;;;;;;-1.57;100.00;101375.13;5050594;28;20053;-79
2022/03/09 05:53:18;;;;;;;147.30;100.38;;;;;;;-1.67;100.00;101376.69;5049897;28;20041;-78
2022/03/09 05:55:45;;;;;;;142.70;99.80;;;;;;;-1.56;100.00;101379.38;5054322;28;20102;-80
2022/03/09 05:58:11;;;;;;;138.75;97.18;;;;;;;-1.39;100.00;101391.19;5047042;28;20053;-79
2022/03/09 06:00:38;;;;;;;141.05;97.38;;;;;;;-1.49;100.00;101393.59;5051440;28;20049;-79
2022/03/09 06:03:05;;;;;;;143.13;102.38;;;;;;;-1.48;100.00;101392.69;5053300;28;20083;-79
2022/03/09 06:05:32;;;;;;;138.65;96.63;;;;;;;-1.44;100.00;101395.91;5052777;28;20449;-78
2022/03/09 06:08:00;;;;;;;150.07;107.97;;;;;;;-1.34;100.00;101399.47;5053398;28;20451;-79
2022/03/09 06:10:26;;;;;;;151.40;108.75;;;;;;;-1.37;100.00;101402.31;5051188;28;20118;-77
2022/03/09 06:12:53;;;;;;;150.48;104.88;;;;;;;-1.59;100.00;101405.66;5060552;28;20057;-80
2022/03/09 06:15:20;;;;;;;158.13;114.18;;;;;;;-1.39;100.00;101414.66;5060074;28;20049;-78
2022/03/09 06:17:48;;;;;;;168.20;115.47;;;;;;;-1.40;100.00;101413.78;5058322;28;20118;-79
2022/03/09 06:20:17;;;;;;;146.45;109.70;;;;;;;-1.47;100.00;101407.38;5057284;28;20049;-80
2022/03/09 06:22:43;;;;;;;178.50;123.35;;;;;;;-1.47;100.00;101412.56;5054969;28;20075;-79
2022/03/09 06:25:14;;;;;;;164.35;113.40;;;;;;;-1.56;100.00;101415.84;5058276;28;20106;-78
2022/03/09 06:27:42;;;;;;;163.65;110.00;;;;;;;-1.59;100.00;101412.63;5058988;28;20052;-79
2022/03/09 06:30:10;;;;;;;163.43;110.32;;;;;;;-1.67;100.00;101415.78;5053830;28;20055;-77
2022/03/09 06:32:37;;;;;;;172.63;122.20;;;;;;;-1.34;100.00;101430.75;5048184;28;20455;-79
2022/03/09 06:35:05;;;;;;;165.55;116.72;;;;;;;-1.37;100.00;101423.16;5058038;28;20539;-80
2022/03/09 06:37:33;;;;;;;192.13;126.88;;;;;;;-1.71;100.00;101428.19;5054333;28;20076;-77
2022/03/09 06:40:02;;;;;;;182.27;123.10;;;;;;;-1.62;100.00;101430.13;5056331;28;20049;-79
2022/03/09 06:42:31;;;;;;;166.00;117.20;;;;;;;-1.83;100.00;101436.03;5056342;28;20041;-79
2022/03/09 06:44:58;;;;;;;196.75;124.35;;;;;;;-1.85;100.00;101426.59;5059470;28;20049;-77
2022/03/09 06:47:25;;;;;;;194.60;122.30;;;;;;;-1.56;100.00;101433.25;5059127;28;20056;-80
2022/03/09 06:49:53;;;;;;;183.57;110.57;;;;;;;-1.81;100.00;101435.00;5057157;28;20048;-77
2022/03/09 06:52:20;;;;;;;194.25;125.80;;;;;;;-1.77;100.00;101438.22;5056014;28;20049;-77
2022/03/09 06:54:46;;;;;;;191.50;126.38;;;;;;;-1.54;100.00;101434.81;5053491;28;20111;-77
2022/03/09 06:57:13;;;;;;;198.30;125.93;;;;;;;-1.71;100.00;101435.19;5058175;28;20102;-79
2022/03/09 06:59:42;;;;;;;221.10;136.70;;;;;;;-1.57;100.00;101432.44;5049026;28;20451;-78
2022/03/09 07:02:09;;;;;;;204.70;131.23;;;;;;;-1.79;100.00;101430.50;5057873;28;20045;-78
2022/03/09 07:04:36;;;;;;;208.18;127.75;;;;;;;-1.73;100.00;101430.06;5049343;28;20072;-80
2022/03/09 07:07:02;;;;;;;165.50;116.03;;;;;;;-1.70;100.00;101429.84;5059330;28;20049;-79
2022/03/09 07:09:29;;;;;;;206.55;135.38;;;;;;;-1.47;100.00;101438.63;5057631;28;20075;-79
2022/03/09 07:11:57;;;;;;;189.88;125.40;;;;;;;-1.74;100.00;101430.19;5054595;28;20041;-80
2022/03/09 07:14:24;;;;;;;191.52;126.65;;;;;;;-1.61;100.00;101428.38;5058315;28;20044;-79
2022/03/09 07:16:52;;;;;;;215.93;146.55;;;;;;;-1.43;100.00;101437.47;5057817;28;20061;-80
2022/03/09 07:19:20;;;;;;;198.13;137.07;;;;;;;-1.61;100.00;101425.75;5057658;28;20130;-80
2022/03/09 07:21:47;;;;;;;165.60;123.57;;;;;;;-1.44;100.00;101430.59;5057026;28;20057;-78
2022/03/09 07:24:14;;;;;;;186.23;131.65;;;;;;;-1.17;100.00;101429.53;5053913;28;20054;-80
2022/03/09 07:26:42;;;;;;;209.45;147.30;;;;;;;-1.36;100.00;101426.59;5055773;28;20049;-80
2022/03/09 07:29:11;;;;;;;165.85;121.93;;;;;;;-1.66;100.00;101423.50;5059186;28;20456;-80
2022/03/09 07:31:38;;;;;;;184.63;127.00;;;;;;;-1.44;100.00;101422.78;5043654;28;20057;-79
2022/03/09 07:34:06;;;;;;;200.32;146.10;;;;;;;-0.99;100.00;101433.41;5056459;28;20048;-79
2022/03/09 07:36:34;;;;;;;188.45;139.77;;;;;;;-0.78;100.00;101430.97;5057821;28;20428;-79
2022/03/09 07:39:01;;;;;;;169.77;120.38;;;;;;;-1.46;100.00;101435.06;5051376;28;20053;-78
2022/03/09 07:41:28;;;;;;;200.13;132.55;;;;;;;-1.38;100.00;101437.16;5053702;28;20102;-80
2022/03/09 07:43:55;;;;;;;183.52;128.98;;;;;;;-1.12;100.00;101435.25;5056591;28;20052;-80
2022/03/09 07:46:22;;;;;;;178.88;131.30;;;;;;;-0.77;100.00;101444.84;5055199;28;20469;-77
2022/03/09 07:48:49;;;;;;;160.45;119.20;;;;;;;-1.28;100.00;101437.31;5052474;28;20460;-80
2022/03/09 07:51:17;;;;;;;168.52;122.60;;;;;;;-0.98;100.00;101449.88;5050654;28;20053;-80
2022/03/09 07:53:44;;;;;;;171.45;126.65;;;;;;;-0.72;100.00;101447.97;5050689;28;20106;-79
2022/03/09 07:56:11;;;;;;;172.50;125.35;;;;;;;-0.85;100.00;101448.00;5058277;28;20144;-78
2022/03/09 07:58:38;;;;;;;165.38;117.50;;;;;;;-1.01;100.00;101453.53;5053636;28;20049;-78
2022/03/09 08:01:05;;;;;;;185.88;128.93;;;;;;;-1.11;100.00;101449.13;5049900;28;20144;-78
2022/03/09 08:03:33;;;;;;;158.40;116.90;;;;;;;-1.05;100.00;101444.28;5056338;28;20052;-79
2022/03/09 08:05:59;;;;;;;169.98;123.35;;;;;;;-1.16;100.00;101449.44;5053855;28;20053;-80
2022/03/09 08:08:27;;;;;;;156.55;120.53;;;;;;;-0.95;100.00;101437.44;5052814;28;20071;-80
2022/03/09 08:10:54;;;;;;;156.43;114.57;;;;;;;-1.01;100.00;101452.72;5045488;28;20057;-78
2022/03/09 08:13:21;;;;;;;171.13;124.05;;;;;;;-0.38;100.00;101450.63;5051782;28;20050;-80
2022/03/09 08:15:48;;;;;;;174.07;127.00;;;;;;;-0.95;100.00;101457.47;5047213;28;20466;-80
2022/03/09 08:18:14;;;;;;;162.73;116.25;;;;;;;-1.09;100.00;101455.91;5041354;28;20046;-80
2022/03/09 08:20:42;;;;;;;173.23;116.70;;;;;;;-1.30;100.00;101453.06;5048672;28;20122;-77
2022/03/09 08:23:09;;;;;;;193.32;131.05;;;;;;;-0.93;100.00;101453.81;5042054;28;20469;-80
2022/03/09 08:25:37;;;;;;;201.13;139.55;;;;;;;-0.58;100.00;101452.94;5042906;28;20405;-81
2022/03/09 08:28:04;;;;;;;171.77;126.00;;;;;;;-0.89;100.00;101456.19;5042864;28;20045;-77
2022/03/09 08:30:32;;;;;;;163.93;118.18;;;;;;;-1.07;100.00;101461.81;5051003;28;20525;-79
2022/03/09 08:32:59;;;;;;;168.20;119.05;;;;;;;-0.71;100.00;101463.47;5049756;28;20079;-80
2022/03/09 08:35:26;;;;;;;179.75;130.95;;;;;;;-0.39;100.00;101459.38;5047023;28;20045;-80
2022/03/09 08:37:52;;;;;;;169.05;126.15;;;;;;;-0.84;100.00;101452.31;5047627;28;20053;-79
2022/03/09 08:40:19;;;;;;;177.02;125.43;;;;;;;-0.96;100.00;101459.25;5045367;28;20044;-80
2022/03/09 08:42:48;;;;;;;186.07;124.82;;;;;;;-0.44;100.00;101462.34;5052998;28;20122;-78
2022/03/09 08:45:16;;;;;;;175.25;130.52;;;;;;;-0.37;100.00;101445.28;5041411;28;20041;-78
2022/03/09 08:47:43;;;;;;;166.00;125.05;;;;;;;-0.32;100.00;101458.00;5045950;28;20045;-80
2022/03/09 08:50:10;;;;;;;175.23;123.50;;;;;;;-0.64;100.00;101463.03;5043523;28;20459;-79
2022/03/09 08:52:37;;;;;;;180.60;121.35;;;;;;;-0.08;100.00;101463.94;5043755;28;20053;-78
2022/03/09 08:55:05;;;;;;;181.30;123.88;;;;;;;-0.57;100.00;101466.84;5044295;28;20053;-79
2022/03/09 08:57:33;;;;;;;188.65;128.23;;;;;;;-0.30;100.00;101469.97;5048278;28;20123;-79
2022/03/09 09:00:03;;;;;;;176.80;126.85;;;;;;;-0.16;100.00;101470.69;5050686;28;20045;-80
2022/03/09 09:02:30;;;;;;;173.82;123.25;;;;;;;-0.33;100.00;101479.84;5041249;28;20045;-77
2022/03/09 09:04:56;;;;;;;177.90;126.28;;;;;;;-0.44;100.00;101475.41;5047558;28;20555;-78
2022/03/09 09:07:25;;;;;;;178.73;125.10;;;;;;;-0.30;100.00;101482.22;5029351;28;20064;-79
2022/03/09 09:09:51;;;;;;;176.82;114.00;;;;;;;-0.51;100.00;101492.50;5039771;28;20559;-80
2022/03/09 09:12:18;;;;;;;171.75;109.35;;;;;;;-0.52;100.00;101493.41;5048264;28;20080;-78
2022/03/09 09:14:45;;;;;;;209.07;141.68;;;;;;;-0.38;100.00;101490.59;5040461;28;20052;-79
2022/03/09 09:17:13;;;;;;;179.55;129.13;;;;;;;-0.54;100.00;101492.72;5043338;28;20049;-80
2022/03/09 09:19:40;;;;;;;191.48;128.75;;;;;;;-0.54;100.00;101493.53;5051564;28;20124;-78
2022/03/09 09:22:07;;;;;;;157.10;110.22;;;;;;;-0.58;100.00;101502.53;5043510;28;20045;-80
2022/03/09 09:24:34;;;;;;;161.73;116.55;;;;;;;-0.42;100.00;101497.03;5042728;28;20045;-80
2022/03/09 09:27:00;;;;;;;150.00;112.00;;;;;;;-0.51;100.00;101497.72;5040363;28;20128;-80
2022/03/09 09:29:28;;;;;;;151.93;111.78;;;;;;;-0.51;100.00;101501.16;5046827;28;20114;-79
2022/03/09 09:31:55;;;;;;;128.25;103.18;;;;;;;-0.52;100.00;101503.84;5044281;28;20474;-77
2022/03/09 09:34:23;;;;;;;146.23;116.85;;;;;;;-0.61;100.00;101496.72;5045667;28;20037;-79
2022/03/09 09:36:50;;;;;;;142.00;113.97;;;;;;;-0.71;100.00;101501.78;5041274;28;20045;-77
2022/03/09 09:39:18;;;;;;;121.97;105.45;;;;;;;-0.63;100.00;101498.63;5050699;28;20539;-79
2022/03/09 09:41:47;;;;;;;107.07;92.30;;;;;;;-0.70;100.00;101493.00;5042768;28;20045;-79
2022/03/09 09:44:15;;;;;;;100.05;87.22;;;;;;;-0.68;100.00;101498.94;5037813;28;20142;-79
2022/03/09 09:46:43;;;;;;;96.78;86.80;;;;;;;-0.78;100.00;101497.97;5054426;28;20106;-77
2022/03/09 09:49:13;;;;;;;108.10;96.43;;;;;;;-0.68;100.00;101504.16;5060213;28;20436;-79
2022/03/09 09:51:43;;;;;;;106.13;94.53;;;;;;;-0.65;100.00;101503.13;5050052;28;20128;-80
2022/03/09 09:54:10;;;;;;;93.85;85.03;;;;;;;-0.77;100.00;101503.06;5057993;28;20040;-78
2022/03/09 09:56:38;;;;;;;93.55;84.65;;;;;;;-0.74;100.00;101499.41;5057900;28;20063;-78
2022/03/09 09:59:05;;;;;;;94.03;85.05;;;;;;;-0.89;100.00;101501.34;5057756;28;20083;-80
2022/03/09 10:01:32;;;;;;;104.97;95.53;;;;;;;-0.93;100.00;101502.53;5047051;28;20057;-79
2022/03/09 10:03:59;;;;;;;87.72;80.45;;;;;;;-0.52;100.00;101509.06;5053762;28;20052;-79
2022/03/09 10:06:26;;;;;;;76.72;71.07;;;;;;;-1.44;100.00;101505.34;5055918;28;20115;-78
2022/03/09 10:11:49;;;;;;;86.90;79.10;;;;;;;-1.26;100.00;101508.41;5059241;28;20517;-80
2022/03/09 10:14:18;;;;;;;95.28;87.07;;;;;;;-1.20;100.00;101511.41;5056119;28;20076;-78
2022/03/09 10:17:05;;;;;;;93.75;85.55;;;;;;;-1.33;100.00;101515.84;5057158;28;20413;-78
2022/03/09 10:19:33;;;;;;;90.63;82.60;;;;;;;-1.18;100.00;101509.53;5056353;28;20048;-78
2022/03/09 10:22:21;;;;;;;96.80;87.55;;;;;;;-1.16;100.00;101519.84;5060026;28;20112;-79
2022/03/09 10:24:50;;;;;;;96.90;87.60;;;;;;;-1.04;100.00;101510.31;5051439;28;20119;-78
2022/03/09 10:27:34;;;;;;;93.53;85.78;;;;;;;-1.12;100.00;101510.00;5052163;28;20103;-79
2022/03/09 10:30:01;;;;;;;103.43;94.28;;;;;;;-0.75;100.00;101516.84;5050356;28;20370;-79
2022/03/09 10:32:43;;;;;;;200.63;183.52;;;;;;;-0.16;100.00;101518.53;5043715;28;20469;-80
2022/03/09 10:35:10;;;;;;;104.93;96.30;;;;;;;0.04;100.00;101521.41;5058521;28;20063;-79
2022/03/09 10:37:38;;;;;;;98.50;89.90;;;;;;;-0.27;100.00;101521.97;5058224;28;20052;-78
2022/03/09 10:40:11;;;;;;;109.28;100.07;;;;;;;0.42;100.00;101516.66;5049586;28;20460;-78
2022/03/09 10:42:37;;;;;;;96.35;88.65;;;;;;;0.04;100.00;101518.81;5045830;28;20453;-81
2022/03/09 10:45:07;;;;;;;101.72;93.10;;;;;;;0.22;100.00;101515.59;5057010;28;20103;-79
2022/03/09 10:47:36;;;;;;;107.45;98.45;;;;;;;-0.15;100.00;101517.59;5058431;28;20096;-80
2022/03/09 10:50:14;;;;;;;116.50;106.80;;;;;;;-0.26;100.00;101517.56;5051722;28;20056;-79
2022/03/09 10:52:45;;;;;;;110.68;101.10;;;;;;;-0.49;100.00;101511.47;5057432;28;20049;-78
2022/03/09 10:55:28;;;;;;;100.47;91.77;;;;;;;0.00;100.00;101515.59;5057282;28;20103;-79
2022/03/09 10:58:09;;;;;;;91.68;83.53;;;;;;;0.12;100.00;101519.03;5056703;28;20461;-78